createdAt,value
2017-04-22T00:00:35.480Z,93.50
2017-04-22T00:01:34.673Z,93.50
2017-04-22T00:02:33.804Z,93.40
2017-04-22T00:03:32.991Z,93.30
2017-04-22T00:04:32.109Z,93.40
2017-04-22T00:05:31.678Z,93.40
2017-04-22T00:06:30.803Z,93.40
2017-04-22T00:07:29.982Z,93.40
2017-04-22T00:08:29.115Z,93.30
2017-04-22T00:09:28.251Z,93.60
2017-04-22T00:10:27.436Z,93.30
2017-04-22T00:11:26.617Z,93.40
2017-04-22T00:12:25.760Z,93.30
2017-04-22T00:13:25.658Z,93.30
2017-04-22T00:14:24.863Z,93.00
2017-04-22T00:15:24.903Z,92.80
2017-04-22T00:16:24.051Z,93.00
2017-04-22T00:17:23.356Z,92.90
2017-04-22T00:18:22.472Z,93.00
2017-04-22T00:19:21.585Z,93.00
2017-04-22T00:20:20.740Z,93.10
2017-04-22T00:21:19.891Z,93.10
2017-04-22T00:22:20.116Z,93.20
2017-04-22T00:23:19.609Z,93.10
2017-04-22T00:24:18.770Z,93.20
2017-04-22T00:25:17.896Z,92.80
2017-04-22T00:26:17.048Z,92.80
2017-04-22T00:27:16.947Z,92.90
2017-04-22T00:28:16.093Z,92.80
2017-04-22T00:29:15.411Z,92.70
2017-04-22T00:30:14.575Z,92.50
2017-04-22T00:31:13.713Z,92.50
2017-04-22T00:32:12.884Z,92.70
2017-04-22T00:33:12.094Z,92.80
2017-04-22T00:34:11.393Z,92.60
2017-04-22T00:35:10.588Z,92.60
2017-04-22T00:36:09.791Z,92.60
2017-04-22T00:37:09.151Z,92.80
2017-04-22T00:38:08.507Z,92.90
2017-04-22T00:39:07.656Z,92.60
2017-04-22T00:40:06.886Z,92.70
2017-04-22T00:41:06.020Z,92.80
2017-04-22T00:42:05.186Z,92.40
2017-04-22T00:43:04.390Z,92.50
2017-04-22T00:44:03.737Z,92.30
2017-04-22T00:45:02.901Z,92.70
2017-04-22T00:46:02.082Z,92.30
2017-04-22T00:47:01.998Z,92.20
2017-04-22T00:48:01.296Z,92.10
2017-04-22T00:49:00.615Z,92.20
2017-04-22T00:50:00.518Z,92.10
2017-04-22T00:51:00.408Z,92.00
2017-04-22T00:51:59.595Z,92.40
2017-04-22T00:52:59.513Z,92.40
2017-04-22T00:53:58.688Z,92.40
2017-04-22T00:54:58.071Z,92.70
2017-04-22T00:55:57.242Z,92.50
2017-04-22T00:56:56.399Z,92.30
2017-04-22T00:57:55.560Z,92.20
2017-04-22T00:58:55.480Z,92.10
2017-04-22T00:59:54.736Z,92.00
2017-04-22T01:00:54.707Z,92.20
2017-04-22T01:01:53.901Z,91.90
2017-04-22T01:02:53.981Z,92.10
2017-04-22T01:03:53.289Z,91.90
2017-04-22T01:04:52.495Z,91.90
2017-04-22T01:05:56.544Z,91.70
2017-04-22T01:06:55.744Z,91.90
2017-04-22T01:07:54.966Z,92.10
2017-04-22T01:09:53.734Z,91.90
2017-04-22T01:10:52.914Z,91.90
2017-04-22T01:11:52.113Z,92.10
2017-04-22T01:12:52.936Z,91.90
2017-04-22T01:13:52.108Z,91.70
2017-04-22T01:14:51.264Z,91.60
2017-04-22T01:15:51.149Z,91.90
2017-04-22T01:16:50.304Z,91.80
2017-04-22T01:17:49.548Z,91.80
2017-04-22T01:18:48.729Z,92.00
2017-04-22T01:19:48.627Z,91.60
2017-04-22T01:20:48.623Z,91.30
2017-04-22T01:21:47.769Z,91.40
2017-04-22T01:22:47.004Z,91.50
2017-04-22T01:23:47.332Z,91.50
2017-04-22T01:24:46.606Z,91.40
2017-04-22T01:25:46.555Z,91.30
2017-04-22T01:26:45.773Z,91.80
2017-04-22T01:27:44.912Z,91.40
2017-04-22T01:28:44.057Z,91.80
2017-04-22T01:29:43.989Z,91.60
2017-04-22T01:30:43.859Z,91.10
2017-04-22T01:31:43.079Z,91.20
2017-04-22T01:32:42.227Z,91.00
2017-04-22T01:33:41.388Z,91.10
2017-04-22T01:34:40.593Z,91.00
2017-04-22T01:35:39.808Z,91.60
2017-04-22T01:36:38.959Z,91.50
2017-04-22T01:37:38.177Z,91.40
2017-04-22T01:38:38.076Z,91.70
2017-04-22T01:39:37.317Z,91.00
2017-04-22T01:40:36.504Z,91.50
2017-04-22T01:41:35.723Z,91.20
2017-04-22T01:42:34.877Z,91.60
2017-04-22T01:43:34.043Z,91.90
2017-04-22T01:44:33.936Z,92.10
2017-04-22T01:45:33.293Z,91.90
2017-04-22T01:46:32.458Z,91.70
2017-04-22T01:47:31.637Z,91.60
2017-04-22T01:48:30.811Z,91.80
2017-04-22T01:49:29.939Z,91.30
2017-04-22T01:50:29.057Z,91.30
2017-04-22T01:51:30.705Z,91.10
2017-04-22T01:52:29.864Z,91.70
2017-04-22T01:53:29.103Z,91.30
2017-04-22T01:54:28.440Z,91.90
2017-04-22T01:55:27.676Z,91.50
2017-04-22T01:56:26.983Z,91.80
2017-04-22T01:57:26.348Z,91.50
2017-04-22T01:58:25.521Z,91.40
2017-04-22T01:59:25.451Z,91.40
2017-04-22T02:00:24.582Z,91.80
2017-04-22T02:01:23.716Z,91.40
2017-04-22T02:02:22.958Z,91.50
2017-04-22T02:04:21.852Z,91.70
2017-04-22T02:05:21.137Z,91.90
2017-04-22T02:06:20.280Z,91.50
2017-04-22T02:07:19.483Z,91.50
2017-04-22T02:08:18.657Z,91.50
2017-04-22T02:09:17.834Z,91.50
2017-04-22T02:10:17.089Z,91.60
2017-04-22T02:11:17.016Z,91.80
2017-04-22T02:12:17.000Z,91.80
2017-04-22T02:13:16.134Z,91.70
2017-04-22T02:14:15.288Z,91.60
2017-04-22T02:15:15.316Z,91.50
2017-04-22T02:16:14.517Z,91.70
2017-04-22T02:17:13.668Z,91.70
2017-04-22T02:18:13.548Z,91.70
2017-04-22T02:19:13.511Z,91.70
2017-04-22T02:20:12.754Z,91.80
2017-04-22T02:21:12.842Z,91.80
2017-04-22T02:22:12.052Z,92.00
2017-04-22T02:23:12.480Z,92.10
2017-04-22T02:24:12.405Z,92.20
2017-04-22T02:25:11.583Z,92.30
2017-04-22T02:26:10.766Z,92.30
2017-04-22T02:27:10.048Z,92.00
2017-04-22T02:28:09.960Z,92.00
2017-04-22T02:29:09.168Z,92.00
2017-04-22T02:30:08.808Z,92.10
2017-04-22T02:31:07.974Z,92.10
2017-04-22T02:32:07.229Z,91.80
2017-04-22T02:33:06.421Z,91.90
2017-04-22T02:34:05.545Z,91.80
2017-04-22T02:35:04.709Z,92.00
2017-04-22T02:36:03.948Z,92.30
2017-04-22T02:37:03.855Z,92.30
2017-04-22T02:38:03.201Z,92.20
2017-04-22T02:39:02.760Z,92.20
2017-04-22T02:40:02.016Z,92.20
2017-04-22T02:41:01.196Z,92.60
2017-04-22T02:42:00.725Z,92.60
2017-04-22T02:43:00.795Z,92.50
2017-04-22T02:44:00.005Z,92.60
2017-04-22T02:44:59.878Z,92.50
2017-04-22T02:45:59.046Z,92.00
2017-04-22T02:46:58.567Z,91.90
2017-04-22T02:47:57.724Z,91.90
2017-04-22T02:48:57.084Z,91.30
2017-04-22T02:49:56.208Z,91.40
2017-04-22T02:50:55.371Z,91.60
2017-04-22T02:51:54.625Z,91.90
2017-04-22T02:52:53.825Z,91.80
2017-04-22T02:53:53.692Z,91.80
2017-04-22T02:54:52.980Z,91.60
2017-04-22T02:55:52.517Z,91.30
2017-04-22T02:56:51.769Z,91.90
2017-04-22T02:57:51.160Z,91.70
2017-04-22T02:58:50.314Z,91.70
2017-04-22T02:59:49.484Z,91.80
2017-04-22T03:00:48.664Z,91.80
2017-04-22T03:01:47.959Z,92.00
2017-04-22T03:02:47.144Z,92.00
2017-04-22T03:03:46.320Z,92.60
2017-04-22T03:04:46.240Z,92.20
2017-04-22T03:05:45.373Z,92.40
2017-04-22T03:06:44.753Z,92.50
2017-04-22T03:07:43.911Z,92.60
2017-04-22T03:08:43.145Z,92.70
2017-04-22T03:09:42.372Z,92.80
2017-04-22T03:10:41.617Z,92.80
2017-04-22T03:11:40.800Z,92.80
2017-04-22T03:12:40.377Z,93.00
2017-04-22T03:13:39.593Z,93.10
2017-04-22T03:14:38.824Z,93.10
2017-04-22T03:15:37.982Z,93.20
2017-04-22T03:16:37.250Z,93.20
2017-04-22T03:17:36.388Z,93.10
2017-04-22T03:18:35.564Z,93.10
2017-04-22T03:19:34.755Z,93.20
2017-04-22T03:20:33.888Z,93.10
2017-04-22T03:21:33.761Z,93.00
2017-04-22T03:22:32.953Z,93.10
2017-04-22T03:23:32.131Z,93.00
2017-04-22T03:24:31.452Z,92.70
2017-04-22T03:25:30.618Z,92.90
2017-04-22T03:26:29.946Z,92.70
2017-04-22T03:27:29.093Z,92.60
2017-04-22T03:28:28.265Z,92.50
2017-04-22T03:29:27.398Z,92.50
2017-04-22T03:30:27.105Z,92.30
2017-04-22T03:31:26.268Z,91.90
2017-04-22T03:32:25.469Z,92.10
2017-04-22T03:33:24.641Z,91.90
2017-04-22T03:34:23.788Z,91.50
2017-04-22T03:35:23.767Z,91.60
2017-04-22T03:36:22.976Z,91.60
2017-04-22T03:37:22.946Z,91.60
2017-04-22T03:38:22.093Z,91.80
2017-04-22T03:39:21.290Z,91.30
2017-04-22T03:40:20.912Z,91.20
2017-04-22T03:41:20.112Z,91.00
2017-04-22T03:42:19.234Z,91.30
2017-04-22T03:43:18.586Z,91.20
2017-04-22T03:44:17.769Z,91.00
2017-04-22T03:45:16.988Z,90.40
2017-04-22T03:46:16.900Z,90.60
2017-04-22T03:47:16.751Z,90.40
2017-04-22T03:48:15.917Z,90.10
2017-04-22T03:49:15.140Z,90.80
2017-04-22T03:50:14.388Z,90.60
2017-04-22T03:51:13.856Z,90.50
2017-04-22T03:52:13.818Z,90.90
2017-04-22T03:53:12.984Z,91.30
2017-04-22T03:54:12.201Z,90.90
2017-04-22T03:55:12.138Z,90.90
2017-04-22T03:56:11.357Z,90.70
2017-04-22T03:57:10.519Z,90.50
2017-04-22T03:58:10.074Z,90.60
2017-04-22T03:59:09.261Z,90.90
2017-04-22T04:00:08.407Z,91.10
2017-04-22T04:01:07.592Z,90.70
2017-04-22T04:02:06.756Z,90.70
2017-04-22T04:03:06.624Z,91.00
2017-04-22T04:04:06.597Z,90.80
2017-04-22T04:05:05.764Z,90.70
2017-04-22T04:06:04.968Z,91.00
2017-04-22T04:07:04.296Z,90.50
2017-04-22T04:08:03.492Z,90.70
2017-04-22T04:09:02.636Z,90.50
2017-04-22T04:10:01.859Z,90.50
2017-04-22T04:11:00.969Z,90.60
2017-04-22T04:12:00.901Z,90.40
2017-04-22T04:13:00.192Z,90.50
2017-04-22T04:13:59.337Z,90.50
2017-04-22T04:14:58.531Z,90.50
2017-04-22T04:15:58.450Z,90.70
2017-04-22T04:16:58.336Z,90.90
2017-04-22T04:17:58.316Z,90.80
2017-04-22T04:18:57.568Z,90.70
2017-04-22T04:19:56.740Z,90.80
2017-04-22T04:20:55.989Z,90.80
2017-04-22T04:21:55.264Z,90.90
2017-04-22T04:22:54.437Z,91.00
2017-04-22T04:23:53.579Z,91.10
2017-04-22T04:24:53.505Z,90.90
2017-04-22T04:25:52.697Z,91.10
2017-04-22T04:26:52.140Z,91.40
2017-04-22T04:27:51.349Z,90.90
2017-04-22T04:28:51.225Z,91.20
2017-04-22T04:29:50.421Z,91.30
2017-04-22T04:30:49.604Z,91.20
2017-04-22T04:31:48.772Z,91.30
2017-04-22T04:32:48.129Z,91.40
2017-04-22T04:33:47.472Z,91.40
2017-04-22T04:34:46.783Z,91.20
2017-04-22T04:35:46.704Z,91.30
2017-04-22T04:36:45.867Z,91.30
2017-04-22T04:37:45.125Z,91.50
2017-04-22T04:38:44.383Z,91.60
2017-04-22T04:39:43.615Z,91.80
2017-04-22T04:40:42.748Z,91.60
2017-04-22T04:41:41.912Z,91.40
2017-04-22T04:42:41.997Z,91.50
2017-04-22T04:44:43.178Z,91.50
2017-04-22T04:45:42.337Z,91.40
2017-04-22T04:46:41.541Z,91.40
2017-04-22T04:47:41.521Z,91.60
2017-04-22T04:48:40.727Z,91.50
2017-04-22T04:49:40.636Z,91.70
2017-04-22T04:50:40.580Z,91.40
2017-04-22T04:51:39.824Z,91.40
2017-04-22T04:52:39.844Z,91.60
2017-04-22T04:53:39.124Z,91.50
2017-04-22T04:54:39.496Z,91.70
2017-04-22T04:55:38.668Z,91.80
2017-04-22T04:56:37.936Z,91.50
2017-04-22T04:57:37.183Z,91.80
2017-04-22T04:58:36.386Z,91.50
2017-04-22T04:59:36.351Z,91.90
2017-04-22T05:00:35.531Z,91.90
2017-04-22T05:01:34.681Z,91.90
2017-04-22T05:02:33.916Z,91.80
2017-04-22T05:03:33.105Z,91.50
2017-04-22T05:04:32.267Z,91.50
2017-04-22T05:05:31.444Z,91.50
2017-04-22T05:06:30.644Z,91.50
2017-04-22T05:07:29.790Z,91.40
2017-04-22T05:08:29.797Z,91.40
2017-04-22T05:09:29.801Z,91.30
2017-04-22T05:10:29.685Z,91.50
2017-04-22T05:11:28.936Z,91.30
2017-04-22T05:12:28.112Z,91.50
2017-04-22T05:13:27.306Z,91.30
2017-04-22T05:14:26.785Z,90.90
2017-04-22T05:15:25.989Z,90.80
2017-04-22T05:16:25.173Z,90.70
2017-04-22T05:17:24.369Z,90.90
2017-04-22T05:18:23.528Z,90.70
2017-04-22T05:19:22.692Z,90.80
2017-04-22T05:20:21.875Z,90.50
2017-04-22T05:21:21.040Z,90.40
2017-04-22T05:22:20.137Z,89.20
2017-04-22T05:23:19.282Z,89.70
2017-04-22T05:24:18.455Z,89.00
2017-04-22T05:25:17.929Z,89.20
2017-04-22T05:26:19.632Z,88.80
2017-04-22T05:27:18.793Z,88.70
2017-04-22T05:28:17.970Z,88.10
2017-04-22T05:29:17.114Z,87.20
2017-04-22T05:30:17.007Z,88.90
2017-04-22T05:31:16.227Z,87.80
2017-04-22T05:32:16.184Z,86.90
2017-04-22T05:33:16.068Z,87.90
2017-04-22T05:34:15.252Z,87.90
2017-04-22T05:35:14.451Z,87.10
2017-04-22T05:36:13.628Z,86.80
2017-04-22T05:37:12.876Z,84.30
2017-04-22T05:38:12.815Z,83.90
2017-04-22T05:39:11.957Z,83.80
2017-04-22T05:40:11.235Z,85.70
2017-04-22T05:41:10.420Z,83.90
2017-04-22T05:43:09.996Z,84.30
2017-04-22T05:44:09.416Z,83.50
2017-04-22T05:45:08.592Z,84.70
2017-04-22T05:46:07.808Z,82.10
2017-04-22T05:47:07.770Z,81.80
2017-04-22T05:48:07.090Z,83.30
2017-04-22T05:49:06.310Z,82.30
2017-04-22T05:50:05.909Z,81.30
2017-04-22T05:51:05.049Z,83.50
2017-04-22T05:52:04.273Z,83.50
2017-04-22T05:53:04.597Z,83.10
2017-04-22T05:54:04.459Z,82.40
2017-04-22T05:55:03.608Z,83.40
2017-04-22T05:56:02.760Z,81.80
2017-04-22T05:57:02.715Z,82.40
2017-04-22T05:58:01.987Z,80.20
2017-04-22T05:59:01.219Z,81.40
2017-04-22T06:00:00.415Z,81.60
2017-04-22T06:00:59.567Z,81.50
2017-04-22T06:01:58.764Z,81.30
2017-04-22T06:02:57.977Z,81.50
2017-04-22T06:03:57.187Z,80.70
2017-04-22T06:04:57.236Z,82.90
2017-04-22T06:05:56.412Z,80.50
2017-04-22T06:06:55.656Z,80.60
2017-04-22T06:07:54.833Z,80.30
2017-04-22T06:08:53.994Z,79.10
2017-04-22T06:09:53.931Z,79.60
2017-04-22T06:10:53.173Z,79.70
2017-04-22T06:11:52.344Z,78.10
2017-04-22T06:12:51.521Z,79.40
2017-04-22T06:13:50.688Z,78.90
2017-04-22T06:14:50.543Z,78.60
2017-04-22T06:15:49.740Z,79.10
2017-04-22T06:16:48.832Z,78.60
2017-04-22T06:17:47.985Z,80.00
2017-04-22T06:18:47.136Z,81.50
2017-04-22T06:19:47.064Z,79.30
2017-04-22T06:20:46.245Z,78.70
2017-04-22T06:21:45.500Z,79.20
2017-04-22T06:22:44.717Z,77.80
2017-04-22T06:23:44.690Z,77.60
2017-04-22T06:24:43.884Z,77.80
2017-04-22T06:25:43.017Z,78.10
2017-04-22T06:26:42.189Z,78.00
2017-04-22T06:27:41.600Z,77.20
2017-04-22T06:28:40.752Z,78.80
2017-04-22T06:29:40.656Z,78.30
2017-04-22T06:30:41.352Z,79.60
2017-04-22T06:31:40.711Z,79.00
2017-04-22T06:32:40.728Z,78.10
2017-04-22T06:33:40.145Z,80.30
2017-04-22T06:34:39.470Z,79.10
2017-04-22T06:35:39.428Z,78.70
2017-04-22T06:36:38.857Z,78.30
2017-04-22T06:37:38.943Z,79.00
2017-04-22T06:38:38.101Z,79.00
2017-04-22T06:39:37.284Z,78.90
2017-04-22T06:40:36.872Z,79.70
2017-04-22T06:41:36.089Z,80.60
2017-04-22T06:42:35.369Z,79.30
2017-04-22T06:43:34.657Z,79.00
2017-04-22T06:44:33.817Z,78.90
2017-04-22T06:45:33.021Z,78.60
2017-04-22T06:46:32.200Z,79.00
2017-04-22T06:47:31.711Z,80.10
2017-04-22T06:48:30.921Z,78.80
2017-04-22T06:49:30.880Z,80.30
2017-04-22T06:50:29.992Z,78.90
2017-04-22T06:51:29.202Z,79.90
2017-04-22T06:52:28.415Z,79.40
2017-04-22T06:53:29.015Z,79.60
2017-04-22T06:54:28.992Z,78.40
2017-04-22T06:55:28.214Z,77.40
2017-04-22T06:56:27.847Z,78.40
2017-04-22T06:57:27.064Z,79.00
2017-04-22T06:58:26.241Z,78.90
2017-04-22T06:59:25.561Z,78.90
2017-04-22T07:00:24.764Z,79.20
2017-04-22T07:01:24.008Z,80.50
2017-04-22T07:02:33.984Z,80.10
2017-04-22T07:03:33.163Z,78.90
2017-04-22T07:04:32.361Z,79.00
2017-04-22T07:05:32.065Z,78.70
2017-04-22T07:06:31.320Z,79.00
2017-04-22T07:07:30.534Z,79.60
2017-04-22T07:08:29.922Z,78.10
2017-04-22T07:09:29.193Z,78.50
2017-04-22T07:10:29.155Z,76.80
2017-04-22T07:11:28.818Z,76.30
2017-04-22T07:12:28.030Z,76.30
2017-04-22T07:13:28.199Z,76.00
2017-04-22T07:14:27.869Z,78.20
2017-04-22T07:15:27.162Z,77.30
2017-04-22T07:16:26.428Z,78.80
2017-04-22T07:17:25.734Z,75.20
2017-04-22T07:18:25.059Z,75.90
2017-04-22T07:19:24.293Z,75.20
2017-04-22T07:21:29.279Z,76.30
2017-04-22T07:22:28.519Z,76.50
2017-04-22T07:23:27.760Z,75.80
2017-04-22T07:24:27.912Z,74.70
2017-04-22T07:25:27.099Z,73.50
2017-04-22T07:26:26.389Z,74.60
2017-04-22T07:27:25.861Z,73.20
2017-04-22T07:28:26.207Z,72.00
2017-04-22T07:29:25.420Z,73.50
2017-04-22T07:30:24.592Z,74.20
2017-04-22T07:31:23.836Z,75.60
2017-04-22T07:32:23.470Z,77.90
2017-04-22T07:33:22.667Z,78.90
2017-04-22T07:34:21.944Z,77.50
2017-04-22T07:35:21.187Z,77.80
2017-04-22T07:36:20.349Z,73.50
2017-04-22T07:37:19.707Z,70.10
2017-04-22T07:38:19.241Z,73.00
2017-04-22T07:39:18.738Z,71.60
2017-04-22T07:40:18.181Z,69.80
2017-04-22T07:41:17.694Z,69.90
2017-04-22T07:42:16.949Z,68.40
2017-04-22T07:43:17.078Z,69.90
2017-04-22T07:44:16.442Z,69.80
2017-04-22T07:45:17.150Z,71.20
2017-04-22T07:46:18.533Z,70.90
2017-04-22T07:47:24.424Z,69.80
2017-04-22T07:48:23.802Z,70.50
2017-04-22T07:49:23.881Z,70.20
2017-04-22T07:50:25.288Z,71.10
2017-04-22T07:52:34.156Z,71.60
2017-04-22T07:53:35.440Z,71.00
2017-04-22T07:54:34.684Z,71.80
2017-04-22T07:55:34.478Z,71.90
2017-04-22T07:56:33.994Z,71.50
2017-04-22T07:57:35.075Z,70.90
2017-04-22T07:58:35.199Z,72.60
2017-04-22T07:59:35.525Z,72.30
2017-04-22T08:00:34.837Z,71.90
2017-04-22T08:01:34.825Z,73.00
2017-04-22T08:02:34.168Z,73.00
2017-04-22T08:03:33.375Z,74.30
2017-04-22T08:04:32.653Z,74.00
2017-04-22T08:05:32.712Z,72.60
2017-04-22T08:06:32.073Z,73.40
2017-04-22T08:07:32.294Z,74.40
2017-04-22T08:08:31.669Z,72.60
2017-04-22T08:09:30.984Z,72.70
2017-04-22T08:10:36.342Z,71.30
2017-04-22T08:11:58.554Z,73.60
2017-04-22T08:12:58.541Z,70.40
2017-04-22T08:13:57.757Z,71.50
2017-04-22T08:14:57.064Z,70.20
2017-04-22T08:15:57.078Z,70.70
2017-04-22T08:16:56.633Z,69.70
2017-04-22T08:17:56.263Z,70.70
2017-04-22T08:18:55.600Z,67.20
2017-04-22T08:19:56.072Z,68.20
2017-04-22T08:20:55.401Z,67.30
2017-04-22T08:21:54.697Z,66.40
2017-04-22T08:22:53.980Z,65.80
2017-04-22T08:23:53.297Z,66.90
2017-04-22T08:24:52.666Z,64.70
2017-04-22T08:25:51.965Z,64.70
2017-04-22T08:26:52.484Z,65.20
2017-04-22T08:27:52.805Z,65.00
2017-04-22T08:28:56.985Z,65.30
2017-04-22T08:29:56.393Z,64.70
2017-04-22T08:30:55.692Z,64.10
2017-04-22T08:31:54.988Z,63.60
2017-04-22T08:33:03.029Z,60.90
2017-04-22T08:34:03.065Z,59.80
2017-04-22T08:35:02.875Z,62.00
2017-04-22T08:36:02.249Z,63.00
2017-04-22T08:37:02.323Z,63.10
2017-04-22T08:38:02.356Z,64.70
2017-04-22T08:39:02.800Z,66.10
2017-04-22T08:40:02.118Z,68.10
2017-04-22T08:41:03.242Z,69.90
2017-04-22T08:42:02.505Z,71.20
2017-04-22T08:43:02.490Z,74.00
2017-04-22T08:44:02.499Z,75.60
2017-04-22T08:45:02.500Z,75.30
2017-04-22T08:46:02.680Z,75.20
2017-04-22T08:47:01.905Z,76.70
2017-04-22T08:48:01.962Z,74.40
2017-04-22T08:49:01.990Z,76.60
2017-04-22T08:50:01.287Z,74.80
2017-04-22T08:51:00.609Z,75.50
2017-04-22T08:51:59.887Z,74.10
2017-04-22T08:52:59.972Z,74.60
2017-04-22T08:53:59.340Z,71.30
2017-04-22T08:54:59.322Z,68.70
2017-04-22T08:55:58.617Z,68.10
2017-04-22T08:56:57.966Z,66.00
2017-04-22T08:57:58.032Z,62.70
2017-04-22T08:58:57.437Z,63.70
2017-04-22T08:59:56.733Z,61.30
2017-04-22T09:00:56.086Z,60.40
2017-04-22T09:01:55.452Z,62.20
2017-04-22T09:02:54.770Z,60.40
2017-04-22T09:03:54.125Z,58.80
2017-04-22T09:04:53.485Z,56.20
2017-04-22T09:05:53.553Z,56.50
2017-04-22T09:06:52.927Z,57.20
2017-04-22T09:07:52.549Z,56.60
2017-04-22T09:08:51.792Z,56.60
2017-04-22T09:09:51.101Z,56.00
2017-04-22T09:10:50.419Z,56.40
2017-04-22T09:11:49.718Z,55.00
2017-04-22T09:12:49.630Z,55.00
2017-04-22T09:13:49.130Z,54.90
2017-04-22T09:14:49.272Z,54.10
2017-04-22T09:15:48.640Z,55.40
2017-04-22T09:16:47.857Z,56.20
2017-04-22T09:17:47.215Z,56.90
2017-04-22T09:18:46.616Z,53.50
2017-04-22T09:19:46.392Z,53.20
2017-04-22T09:20:45.811Z,50.40
2017-04-22T09:21:45.057Z,48.40
2017-04-22T09:22:44.289Z,48.10
2017-04-22T09:23:43.600Z,51.10
2017-04-22T09:24:43.682Z,49.50
2017-04-22T09:25:44.152Z,48.70
2017-04-22T09:26:43.545Z,48.40
2017-04-22T09:27:42.976Z,47.90
2017-04-22T09:28:43.116Z,47.40
2017-04-22T09:29:43.117Z,46.70
2017-04-22T09:30:42.336Z,45.90
2017-04-22T09:31:41.623Z,47.00
2017-04-22T09:32:41.029Z,47.30
2017-04-22T09:33:40.630Z,47.60
2017-04-22T09:34:40.328Z,47.00
2017-04-22T09:35:39.803Z,46.90
2017-04-22T09:36:39.109Z,46.60
2017-04-22T09:37:38.430Z,46.70
2017-04-22T09:38:37.598Z,46.40
2017-04-22T09:39:37.292Z,47.10
2017-04-22T09:40:36.679Z,47.30
2017-04-22T09:41:36.431Z,47.30
2017-04-22T09:42:35.723Z,46.00
2017-04-22T09:43:35.025Z,45.40
2017-04-22T09:44:34.473Z,47.00
2017-04-22T09:45:34.229Z,46.30
2017-04-22T09:46:33.997Z,47.00
2017-04-22T09:47:34.096Z,47.70
2017-04-22T09:48:34.100Z,46.80
2017-04-22T09:49:33.493Z,45.90
2017-04-22T09:50:32.857Z,45.40
2017-04-22T09:51:32.282Z,46.70
2017-04-22T09:52:31.611Z,45.00
2017-04-22T09:53:31.666Z,45.70
2017-04-22T09:54:34.076Z,46.50
2017-04-22T09:55:34.136Z,44.40
2017-04-22T09:56:33.499Z,44.80
2017-04-22T09:57:32.841Z,44.40
2017-04-22T09:58:32.639Z,43.30
2017-04-22T09:59:31.887Z,43.70
2017-04-22T10:00:31.357Z,43.80
2017-04-22T10:01:30.779Z,44.50
2017-04-22T10:02:30.546Z,45.70
2017-04-22T10:03:29.831Z,45.70
2017-04-22T10:04:30.823Z,44.50
2017-04-22T10:05:30.107Z,45.20
2017-04-22T10:06:30.106Z,45.30
2017-04-22T10:07:29.364Z,45.90
2017-04-22T10:08:29.210Z,46.40
2017-04-22T10:09:28.718Z,45.10
2017-04-22T10:10:29.739Z,46.20
2017-04-22T10:12:28.748Z,46.10
2017-04-22T10:13:29.033Z,46.00
2017-04-22T10:14:28.237Z,46.50
2017-04-22T10:15:27.745Z,46.70
2017-04-22T10:16:27.231Z,44.60
2017-04-22T10:17:26.648Z,44.30
2017-04-22T10:18:26.782Z,44.70
2017-04-22T10:19:27.065Z,44.80
2017-04-22T10:20:26.626Z,44.40
2017-04-22T10:21:25.988Z,46.20
2017-04-22T10:22:25.273Z,46.00
2017-04-22T10:23:30.295Z,48.00
2017-04-22T10:24:29.992Z,48.30
2017-04-22T10:25:31.916Z,46.80
2017-04-22T10:26:31.299Z,47.10
2017-04-22T10:27:30.568Z,48.60
2017-04-22T10:28:29.850Z,48.20
2017-04-22T10:29:31.559Z,49.30
2017-04-22T10:30:31.034Z,49.30
2017-04-22T10:31:31.473Z,50.10
2017-04-22T10:32:31.581Z,50.70
2017-04-22T10:33:31.186Z,51.20
2017-04-22T10:34:30.393Z,50.90
2017-04-22T10:35:29.637Z,51.50
2017-04-22T10:36:29.007Z,52.80
2017-04-22T10:37:29.952Z,53.30
2017-04-22T10:38:29.428Z,54.80
2017-04-22T10:39:28.917Z,54.20
2017-04-22T10:40:28.992Z,54.70
2017-04-22T10:41:28.569Z,55.90
2017-04-22T10:42:27.117Z,55.90
2017-04-22T10:43:27.801Z,56.70
2017-04-22T10:44:28.463Z,56.40
2017-04-22T10:45:30.945Z,56.60
2017-04-22T10:46:30.192Z,56.40
2017-04-22T10:47:30.312Z,56.40
2017-04-22T10:48:31.472Z,56.40
2017-04-22T10:49:33.053Z,55.80
2017-04-22T10:50:33.585Z,55.50
2017-04-22T10:51:33.729Z,55.80
2017-04-22T10:52:33.087Z,56.20
2017-04-22T10:54:32.708Z,54.90
2017-04-22T10:55:33.742Z,54.30
2017-04-22T10:56:33.864Z,54.40
2017-04-22T10:57:33.294Z,53.50
2017-04-22T10:58:32.554Z,52.90
2017-04-22T10:59:33.422Z,53.30
2017-04-22T11:00:34.954Z,53.30
2017-04-22T11:01:34.339Z,53.80
2017-04-22T11:02:33.726Z,54.10
2017-04-22T11:03:33.154Z,55.40
2017-04-22T11:04:39.008Z,53.20
2017-04-22T11:05:38.642Z,53.70
2017-04-22T11:06:39.614Z,52.90
2017-04-22T11:07:40.918Z,53.10
2017-04-22T11:08:40.234Z,52.40
2017-04-22T11:09:51.523Z,52.90
2017-04-22T11:10:50.798Z,53.30
2017-04-22T11:11:52.160Z,52.40
2017-04-22T11:12:53.750Z,53.10
2017-04-22T11:13:55.582Z,54.40
2017-04-22T11:14:54.929Z,55.30
2017-04-22T11:15:54.230Z,55.70
2017-04-22T11:16:53.545Z,57.70
2017-04-22T11:17:52.781Z,60.80
2017-04-22T11:18:53.203Z,60.80
2017-04-22T11:19:53.549Z,59.50
2017-04-22T11:20:53.537Z,60.00
2017-04-22T11:21:52.797Z,61.40
2017-04-22T11:22:52.072Z,59.80
2017-04-22T11:23:51.517Z,61.20
2017-04-22T11:24:50.797Z,58.20
2017-04-22T11:25:51.111Z,57.80
2017-04-22T11:26:51.833Z,58.20
2017-04-22T11:27:51.096Z,57.50
2017-04-22T11:28:50.462Z,58.50
2017-04-22T11:29:50.964Z,57.60
2017-04-22T11:30:55.805Z,56.60
2017-04-22T11:31:56.145Z,55.60
2017-04-22T11:32:55.520Z,55.20
2017-04-22T11:33:55.617Z,55.60
2017-04-22T11:34:54.913Z,55.90
2017-04-22T11:35:54.352Z,55.40
2017-04-22T11:36:57.224Z,55.90
2017-04-22T11:38:03.551Z,55.20
2017-04-22T11:39:03.659Z,55.40
2017-04-22T11:40:04.825Z,56.50
2017-04-22T11:41:04.356Z,53.50
2017-04-22T11:42:04.515Z,51.70
2017-04-22T11:43:03.837Z,52.30
2017-04-22T11:44:03.134Z,50.90
2017-04-22T11:45:02.422Z,51.80
2017-04-22T11:46:02.388Z,50.00
2017-04-22T11:47:01.774Z,48.70
2017-04-22T11:48:01.018Z,47.60
2017-04-22T11:49:00.873Z,47.80
2017-04-22T11:50:00.116Z,47.50
2017-04-22T11:50:59.349Z,47.90
2017-04-22T11:51:58.753Z,46.60
2017-04-22T11:52:58.057Z,48.50
2017-04-22T11:54:00.403Z,47.70
2017-04-22T11:54:59.857Z,48.70
2017-04-22T11:55:59.598Z,50.00
2017-04-22T11:56:58.877Z,50.50
2017-04-22T11:58:00.182Z,50.90
2017-04-22T11:58:59.501Z,51.20
2017-04-22T12:01:07.069Z,51.30
2017-04-22T12:02:06.689Z,52.50
2017-04-22T12:03:06.006Z,52.00
2017-04-22T12:04:05.321Z,51.20
2017-04-22T12:05:04.800Z,51.80
2017-04-22T12:06:04.830Z,51.80
2017-04-22T12:07:04.053Z,52.30
2017-04-22T12:08:03.213Z,52.30
2017-04-22T12:09:02.521Z,51.40
2017-04-22T12:10:01.742Z,51.10
2017-04-22T12:11:00.964Z,50.00
2017-04-22T12:12:00.282Z,48.80
2017-04-22T12:13:00.317Z,49.30
2017-04-22T12:14:59.301Z,50.20
2017-04-22T12:17:00.424Z,51.20
2017-04-22T12:17:59.681Z,52.80
2017-04-22T12:18:58.924Z,53.60
2017-04-22T12:19:58.266Z,55.80
2017-04-22T12:20:57.484Z,55.90
2017-04-22T12:21:56.782Z,56.30
2017-04-22T12:22:55.980Z,56.90
2017-04-22T12:23:55.188Z,57.40
2017-04-22T12:24:55.131Z,55.70
2017-04-22T12:25:54.360Z,52.10
2017-04-22T12:26:53.559Z,50.90
2017-04-22T12:27:53.556Z,47.00
2017-04-22T12:28:52.820Z,44.80
2017-04-22T12:29:51.995Z,44.60
2017-04-22T12:30:51.146Z,44.10
2017-04-22T12:31:51.093Z,43.20
2017-04-22T12:32:50.340Z,44.20
2017-04-22T12:33:50.368Z,44.40
2017-04-22T12:34:49.624Z,43.50
2017-04-22T12:35:48.980Z,43.70
2017-04-22T12:36:48.376Z,42.80
2017-04-22T12:37:47.532Z,42.20
2017-04-22T12:38:46.753Z,42.00
2017-04-22T12:39:45.976Z,42.70
2017-04-22T12:40:47.081Z,44.60
2017-04-22T12:41:46.300Z,45.30
2017-04-22T12:42:46.379Z,46.20
2017-04-22T12:43:45.594Z,47.50
2017-04-22T12:44:45.633Z,49.00
2017-04-22T12:45:44.892Z,48.00
2017-04-22T12:46:44.911Z,49.10
2017-04-22T12:47:44.124Z,48.80
2017-04-22T12:48:43.472Z,49.00
2017-04-22T12:49:43.425Z,48.80
2017-04-22T12:50:42.647Z,50.70
2017-04-22T12:51:41.868Z,52.00
2017-04-22T12:52:41.049Z,55.00
2017-04-22T12:53:41.125Z,57.90
2017-04-22T12:54:40.354Z,59.30
2017-04-22T12:55:39.574Z,60.10
2017-04-22T12:56:38.901Z,58.00
2017-04-22T12:57:38.588Z,57.10
2017-04-22T12:58:37.769Z,57.10
2017-04-22T12:59:37.049Z,57.10